createdAt,value
2023-05-19T00:01:16.996Z,2.80
2023-05-19T00:03:54.855Z,2.60
2023-05-19T00:06:27.041Z,2.78
2023-05-19T00:08:58.993Z,2.60
2023-05-19T00:11:27.220Z,2.35
2023-05-19T00:14:00.468Z,2.85
2023-05-19T00:16:28.888Z,2.22
2023-05-19T00:18:58.503Z,2.83
2023-05-19T00:21:25.375Z,2.60
2023-05-19T00:23:52.465Z,2.95
2023-05-19T00:26:19.365Z,2.70
2023-05-19T00:28:46.191Z,2.70
2023-05-19T00:31:13.033Z,2.55
2023-05-19T00:33:39.832Z,3.13
2023-05-19T00:36:07.059Z,2.70
2023-05-19T00:38:35.977Z,2.95
2023-05-19T00:41:04.092Z,2.55
2023-05-19T00:43:31.407Z,3.00
2023-05-19T00:45:58.332Z,3.08
2023-05-19T00:48:26.580Z,2.50
2023-05-19T00:50:56.334Z,2.60
2023-05-19T00:53:24.073Z,2.88
2023-05-19T00:55:50.868Z,3.03
2023-05-19T00:58:18.750Z,2.75
2023-05-19T01:00:46.279Z,2.90
2023-05-19T01:03:13.332Z,2.95
2023-05-19T01:05:53.923Z,2.80
2023-05-19T01:08:20.830Z,2.83
2023-05-19T01:10:47.689Z,3.40
2023-05-19T01:13:15.010Z,2.67
2023-05-19T01:15:53.837Z,3.03
2023-05-19T01:18:29.533Z,3.63
2023-05-19T01:21:27.487Z,3.72
2023-05-19T01:24:39.497Z,2.75
2023-05-19T01:27:27.674Z,2.35
2023-05-19T01:30:24.057Z,2.47
2023-05-19T01:32:53.675Z,2.53
2023-05-19T01:35:24.070Z,2.97
2023-05-19T01:37:55.304Z,3.47
2023-05-19T01:40:23.805Z,2.83
2023-05-19T01:42:55.598Z,2.78
2023-05-19T01:45:25.336Z,3.28
2023-05-19T01:47:55.831Z,3.55
2023-05-19T01:50:23.310Z,3.28
2023-05-19T01:52:50.321Z,3.17
2023-05-19T01:55:17.664Z,3.47
2023-05-19T01:57:51.448Z,3.40
2023-05-19T02:00:55.718Z,3.50
2023-05-19T02:03:29.136Z,3.60
2023-05-19T02:06:15.230Z,3.78
2023-05-19T02:08:51.099Z,3.08
2023-05-19T02:11:38.120Z,3.00
2023-05-19T02:14:26.360Z,4.22
2023-05-19T02:16:54.227Z,3.70
2023-05-19T02:19:29.607Z,3.65
2023-05-19T02:21:56.784Z,3.60
2023-05-19T02:24:23.765Z,4.00
2023-05-19T02:26:52.364Z,3.38
2023-05-19T02:29:20.070Z,2.90
2023-05-19T02:31:47.368Z,3.90
2023-05-19T02:34:14.303Z,3.47
2023-05-19T02:36:43.394Z,3.63
2023-05-19T02:39:11.528Z,3.67
2023-05-19T02:41:39.081Z,3.90
2023-05-19T02:44:06.005Z,3.40
2023-05-19T02:46:32.942Z,4.18
2023-05-19T02:49:00.189Z,4.03
2023-05-19T02:51:26.972Z,3.63
2023-05-19T02:53:53.802Z,3.35
2023-05-19T02:56:21.567Z,3.72
2023-05-19T02:58:48.449Z,3.53
2023-05-19T03:01:15.947Z,3.53
2023-05-19T03:03:42.881Z,3.47
2023-05-19T03:06:09.777Z,3.78
2023-05-19T03:08:36.626Z,3.17
2023-05-19T03:11:04.041Z,3.78
2023-05-19T03:13:30.851Z,3.67
2023-05-19T03:15:59.357Z,3.60
2023-05-19T03:18:26.894Z,3.47
2023-05-19T03:20:54.332Z,3.35
2023-05-19T03:23:24.198Z,3.50
2023-05-19T03:25:51.192Z,3.88
2023-05-19T03:28:17.977Z,3.10
2023-05-19T03:30:44.953Z,3.40
2023-05-19T03:33:12.521Z,3.28
2023-05-19T03:35:39.441Z,3.35
2023-05-19T03:38:06.283Z,3.38
2023-05-19T03:40:33.321Z,4.25
2023-05-19T03:43:01.328Z,4.63
2023-05-19T03:45:28.744Z,3.38
2023-05-19T03:47:55.810Z,3.40
2023-05-19T03:50:23.175Z,3.88
2023-05-19T03:52:50.005Z,3.50
2023-05-19T03:55:16.858Z,3.38
2023-05-19T03:57:44.631Z,3.50
2023-05-19T04:00:12.551Z,3.05
2023-05-19T04:02:39.896Z,3.33
2023-05-19T04:05:07.434Z,3.83
2023-05-19T04:07:34.242Z,3.33
2023-05-19T04:10:01.187Z,4.05
2023-05-19T04:12:28.407Z,3.78
2023-05-19T04:14:55.161Z,3.28
2023-05-19T04:17:23.930Z,3.10
2023-05-19T04:19:51.251Z,3.67
2023-05-19T04:22:18.006Z,3.88
2023-05-19T04:24:45.041Z,2.97
2023-05-19T04:27:12.488Z,3.33
2023-05-19T04:29:41.028Z,3.72
2023-05-19T04:32:08.550Z,3.78
2023-05-19T04:34:35.746Z,4.00
2023-05-19T04:37:02.902Z,3.08
2023-05-19T04:39:29.703Z,4.03
2023-05-19T04:41:56.928Z,3.60
2023-05-19T04:44:23.786Z,3.53
2023-05-19T04:46:54.638Z,3.72
2023-05-19T04:49:21.534Z,3.85
2023-05-19T04:51:51.534Z,4.22
2023-05-19T04:54:19.517Z,3.97
2023-05-19T04:56:46.484Z,4.15
2023-05-19T04:59:13.301Z,3.90
2023-05-19T05:01:41.208Z,3.53
2023-05-19T05:04:08.196Z,3.92
2023-05-19T05:06:35.046Z,3.72
2023-05-19T05:09:04.220Z,3.33
2023-05-19T05:11:31.292Z,3.85
2023-05-19T05:13:58.515Z,4.07
2023-05-19T05:16:26.128Z,3.22
2023-05-19T05:18:53.413Z,4.18
2023-05-19T05:21:20.758Z,3.35
2023-05-19T05:23:47.843Z,3.20
2023-05-19T05:26:23.365Z,4.65
2023-05-19T05:28:50.634Z,3.60
2023-05-19T05:31:17.638Z,3.92
2023-05-19T05:33:44.910Z,3.90
2023-05-19T05:36:11.810Z,4.05
2023-05-19T05:38:38.707Z,3.40
2023-05-19T05:41:05.514Z,4.50
2023-05-19T05:43:32.317Z,3.75
2023-05-19T05:45:59.141Z,3.20
2023-05-19T05:48:26.598Z,3.65
2023-05-19T05:50:54.813Z,3.17
2023-05-19T05:53:22.165Z,3.22
2023-05-19T05:55:49.582Z,3.92
2023-05-19T05:58:17.236Z,3.05
2023-05-19T06:00:44.248Z,2.92
2023-05-19T06:03:11.807Z,3.05
2023-05-19T06:05:38.950Z,2.80
2023-05-19T06:08:06.268Z,2.90
2023-05-19T06:10:33.512Z,2.58
2023-05-19T06:13:00.458Z,2.65
2023-05-19T06:15:27.353Z,3.42
2023-05-19T06:17:54.940Z,2.67
2023-05-19T06:20:22.163Z,2.65
2023-05-19T06:22:49.002Z,2.92
2023-05-19T06:25:16.019Z,3.40
2023-05-19T06:27:42.876Z,2.85
2023-05-19T06:30:10.076Z,2.40
2023-05-19T06:32:36.855Z,2.80
2023-05-19T06:35:03.904Z,2.65
2023-05-19T06:37:30.726Z,2.70
2023-05-19T06:39:57.743Z,2.75
2023-05-19T06:42:25.597Z,2.63
2023-05-19T06:44:53.564Z,2.72
2023-05-19T06:47:20.390Z,2.95
2023-05-19T06:49:51.293Z,2.80
2023-05-19T06:52:18.388Z,3.08
2023-05-19T06:54:45.364Z,2.72
2023-05-19T06:57:12.225Z,2.72
2023-05-19T06:59:41.168Z,3.08
2023-05-19T07:02:08.318Z,3.00
2023-05-19T07:04:35.957Z,2.88
2023-05-19T07:07:03.264Z,3.00
2023-05-19T07:09:30.236Z,2.88
2023-05-19T07:11:57.097Z,2.67
2023-05-19T07:14:23.924Z,2.47
2023-05-19T07:16:50.896Z,3.38
2023-05-19T07:19:20.048Z,3.22
2023-05-19T07:21:48.087Z,3.42
2023-05-19T07:24:14.871Z,2.88
2023-05-19T07:26:42.886Z,2.70
2023-05-19T07:29:09.715Z,2.67
2023-05-19T07:31:36.596Z,3.33
2023-05-19T07:34:04.062Z,3.63
2023-05-19T07:36:31.550Z,2.50
2023-05-19T07:38:58.379Z,3.28
2023-05-19T07:41:25.258Z,3.35
2023-05-19T07:43:52.032Z,3.00
2023-05-19T07:46:18.914Z,3.25
2023-05-19T07:48:45.931Z,2.42
2023-05-19T07:51:13.159Z,3.25
2023-05-19T07:53:39.940Z,2.70
2023-05-19T07:56:06.855Z,3.13
2023-05-19T07:58:33.667Z,2.90
2023-05-19T08:01:00.983Z,2.90
2023-05-19T08:03:27.986Z,3.25
2023-05-19T08:05:54.968Z,3.10
2023-05-19T08:08:22.189Z,3.53
2023-05-19T08:10:48.977Z,2.88
2023-05-19T08:13:15.849Z,3.42
2023-05-19T08:15:43.042Z,3.10
2023-05-19T08:18:09.933Z,3.13
2023-05-19T08:20:36.996Z,2.90
2023-05-19T08:23:03.879Z,3.22
2023-05-19T08:25:30.648Z,3.20
2023-05-19T08:27:57.595Z,3.03
2023-05-19T08:30:24.519Z,3.08
2023-05-19T08:32:51.431Z,3.08
2023-05-19T08:35:18.264Z,3.33
2023-05-19T08:37:45.141Z,2.70
2023-05-19T08:40:17.356Z,3.10
2023-05-19T08:42:48.195Z,2.95
2023-05-19T08:45:15.326Z,3.08
2023-05-19T08:47:42.778Z,2.88
2023-05-19T08:50:13.198Z,2.72
2023-05-19T08:52:49.467Z,3.47
2023-05-19T08:56:01.733Z,3.40
2023-05-19T08:58:29.213Z,2.67
2023-05-19T09:00:58.038Z,3.58
2023-05-19T09:03:26.771Z,3.00
2023-05-19T09:05:53.768Z,3.00
2023-05-19T09:08:21.112Z,3.05
2023-05-19T09:10:47.940Z,3.20
2023-05-19T09:13:16.102Z,3.08
2023-05-19T09:15:45.769Z,3.00
2023-05-19T09:18:15.292Z,2.92
2023-05-19T09:20:44.021Z,3.10
2023-05-19T09:23:16.620Z,3.08
2023-05-19T09:25:51.149Z,2.88
2023-05-19T09:28:25.568Z,2.75
2023-05-19T09:31:05.285Z,3.10
2023-05-19T09:33:34.651Z,2.97
2023-05-19T09:36:01.958Z,3.00
2023-05-19T09:38:28.789Z,3.13
2023-05-19T09:40:59.882Z,3.10
2023-05-19T09:43:31.050Z,3.15
2023-05-19T09:46:04.420Z,3.13
2023-05-19T09:48:31.336Z,2.85
2023-05-19T09:50:59.109Z,3.03
2023-05-19T09:53:26.215Z,2.80
2023-05-19T09:55:58.113Z,3.10
2023-05-19T09:58:26.600Z,3.45
2023-05-19T10:00:57.642Z,3.75
2023-05-19T10:03:25.797Z,3.92
2023-05-19T10:05:53.862Z,3.53
2023-05-19T10:08:21.804Z,2.90
2023-05-19T10:10:48.769Z,3.10
2023-05-19T10:13:16.930Z,2.95
2023-05-19T10:15:57.475Z,3.30
2023-05-19T10:18:27.331Z,3.35
2023-05-19T10:20:54.669Z,3.47
2023-05-19T10:23:22.704Z,3.05
2023-05-19T10:25:52.612Z,2.67
2023-05-19T10:28:23.845Z,2.20
2023-05-19T10:30:54.933Z,2.83
2023-05-19T10:33:29.581Z,2.75
2023-05-19T10:36:02.938Z,2.85
2023-05-19T10:38:39.072Z,2.67
2023-05-19T10:41:47.343Z,2.72
2023-05-19T10:44:14.330Z,2.95
2023-05-19T10:46:41.657Z,2.30
2023-05-19T10:49:08.912Z,2.80
2023-05-19T10:51:37.382Z,3.47
2023-05-19T10:54:12.116Z,2.05
2023-05-19T10:56:42.675Z,2.30
2023-05-19T10:59:33.537Z,2.50
2023-05-19T11:02:08.390Z,2.63
2023-05-19T11:04:50.317Z,2.42
2023-05-19T11:07:20.310Z,3.60
2023-05-19T11:09:51.964Z,3.88
2023-05-19T11:12:25.553Z,2.88
2023-05-19T11:14:55.911Z,2.90
2023-05-19T11:17:25.954Z,2.65
2023-05-19T11:19:54.906Z,2.75
2023-05-19T11:22:27.222Z,2.40
2023-05-19T11:24:57.278Z,2.90
2023-05-19T11:27:31.944Z,2.83
2023-05-19T11:30:06.943Z,2.67
2023-05-19T11:32:35.213Z,2.50
2023-05-19T11:35:02.910Z,2.83
2023-05-19T11:37:33.137Z,2.88
2023-05-19T11:40:02.551Z,2.58
2023-05-19T11:42:29.555Z,2.75
2023-05-19T11:44:56.576Z,2.80
2023-05-19T11:47:23.665Z,2.60
2023-05-19T11:49:55.089Z,2.67
2023-05-19T11:52:23.479Z,2.80
2023-05-19T11:54:50.964Z,2.80
2023-05-19T11:57:18.264Z,2.80
2023-05-19T11:59:46.087Z,2.58
2023-05-19T12:02:14.092Z,3.00
2023-05-19T12:04:41.219Z,2.55
2023-05-19T12:07:08.519Z,2.53
2023-05-19T12:09:35.968Z,2.30
2023-05-19T12:12:03.242Z,2.47
2023-05-19T12:14:34.747Z,2.28
2023-05-19T12:17:14.054Z,2.08
2023-05-19T12:19:43.325Z,2.50
2023-05-19T12:22:11.086Z,2.55
2023-05-19T12:24:39.117Z,2.17
2023-05-19T12:27:17.743Z,2.10
2023-05-19T12:29:53.834Z,2.35
2023-05-19T12:32:27.924Z,2.40
2023-05-19T12:34:58.132Z,2.47
2023-05-19T12:37:28.219Z,1.98
2023-05-19T12:39:56.474Z,2.15
2023-05-19T12:42:24.401Z,2.00
2023-05-19T12:44:52.846Z,2.03
2023-05-19T12:47:20.643Z,2.47
2023-05-19T12:50:01.734Z,2.20
2023-05-19T12:52:29.744Z,2.47
2023-05-19T12:55:01.741Z,2.10
2023-05-19T12:57:32.702Z,2.40
2023-05-19T13:00:21.296Z,2.42
2023-05-19T13:03:07.894Z,2.40
2023-05-19T13:05:38.361Z,2.30
2023-05-19T13:08:09.937Z,2.65
2023-05-19T13:10:38.479Z,2.20
2023-05-19T13:13:06.194Z,2.33
2023-05-19T13:15:38.052Z,2.40
2023-05-19T13:18:07.486Z,2.42
2023-05-19T13:20:35.542Z,2.40
2023-05-19T13:23:02.806Z,2.60
2023-05-19T13:25:29.727Z,2.53
2023-05-19T13:27:57.064Z,2.30
2023-05-19T13:30:24.633Z,2.22
2023-05-19T13:32:52.750Z,2.50
2023-05-19T13:35:20.663Z,2.40
2023-05-19T13:37:47.535Z,2.40
2023-05-19T13:40:14.618Z,2.83
2023-05-19T13:42:42.037Z,2.53
2023-05-19T13:45:09.621Z,2.92
2023-05-19T13:47:36.763Z,2.80
2023-05-19T13:50:04.849Z,2.75
2023-05-19T13:52:32.016Z,2.80
2023-05-19T13:54:58.807Z,2.60
2023-05-19T13:57:26.600Z,2.38
2023-05-19T14:00:02.418Z,2.53
2023-05-19T14:02:30.643Z,2.47
2023-05-19T14:04:57.776Z,2.40
2023-05-19T14:07:25.907Z,2.92
2023-05-19T14:09:53.127Z,2.35
2023-05-19T14:12:23.194Z,2.42
2023-05-19T14:14:52.315Z,2.70
2023-05-19T14:17:19.217Z,2.17
2023-05-19T14:19:46.273Z,2.60
2023-05-19T14:22:13.708Z,2.92
2023-05-19T14:24:41.831Z,2.85
2023-05-19T14:27:08.674Z,2.53
2023-05-19T14:29:35.643Z,2.50
2023-05-19T14:32:03.477Z,2.45
2023-05-19T14:34:30.654Z,3.38
2023-05-19T14:36:57.516Z,2.50
2023-05-19T14:39:24.321Z,2.70
2023-05-19T14:41:52.192Z,2.50
2023-05-19T14:44:19.063Z,2.38
2023-05-19T14:46:45.968Z,2.30
2023-05-19T14:49:12.866Z,2.50
2023-05-19T14:51:39.665Z,2.50
2023-05-19T14:54:06.893Z,2.28
2023-05-19T14:56:33.910Z,2.90
2023-05-19T14:59:00.804Z,2.40
2023-05-19T15:01:30.403Z,2.50
2023-05-19T15:03:57.335Z,2.20
2023-05-19T15:06:24.245Z,2.08
2023-05-19T15:08:51.256Z,2.17
2023-05-19T15:11:18.121Z,2.00
2023-05-19T15:13:45.064Z,2.20
2023-05-19T15:18:41.595Z,4.25
2023-05-19T15:21:08.392Z,3.58
2023-05-19T15:23:35.192Z,3.97
2023-05-19T15:26:02.064Z,3.78
2023-05-19T15:28:29.005Z,2.40
2023-05-19T15:30:55.902Z,2.15
2023-05-19T15:33:22.821Z,2.45
2023-05-19T15:35:51.932Z,2.28
2023-05-19T15:38:19.892Z,2.55
2023-05-19T15:40:47.093Z,2.13
2023-05-19T15:43:14.227Z,2.85
2023-05-19T15:45:41.184Z,2.38
2023-05-19T15:48:08.453Z,2.42
2023-05-19T15:50:36.988Z,2.03
2023-05-19T15:53:04.008Z,2.40
2023-05-19T15:55:30.888Z,2.45
2023-05-19T15:57:57.773Z,2.13
2023-05-19T16:00:24.737Z,2.20
2023-05-19T16:02:51.657Z,2.00
2023-05-19T16:05:18.709Z,2.20
2023-05-19T16:07:45.498Z,2.60
2023-05-19T16:10:12.426Z,2.17
2023-05-19T16:12:39.240Z,3.10
2023-05-19T16:15:06.547Z,2.40
2023-05-19T16:17:33.495Z,2.45
2023-05-19T16:20:00.455Z,2.67
2023-05-19T16:22:27.584Z,2.80
2023-05-19T16:24:54.409Z,2.28
2023-05-19T16:27:21.262Z,2.20
2023-05-19T16:29:48.064Z,2.40
2023-05-19T16:32:15.048Z,2.42
2023-05-19T16:34:42.358Z,2.67
2023-05-19T16:37:09.281Z,2.40
2023-05-19T16:39:37.140Z,2.45
2023-05-19T16:42:04.940Z,2.40
2023-05-19T16:44:31.949Z,2.40
2023-05-19T16:46:58.806Z,2.70
2023-05-19T16:49:25.771Z,2.10
2023-05-19T16:51:53.304Z,2.35
2023-05-19T16:54:21.183Z,2.58
2023-05-19T16:56:48.139Z,2.10
2023-05-19T16:59:15.049Z,2.40
2023-05-19T17:01:42.068Z,2.15
2023-05-19T17:04:09.284Z,2.25
2023-05-19T17:06:36.175Z,2.45
2023-05-19T17:09:03.089Z,2.40
2023-05-19T17:11:29.975Z,2.38
2023-05-19T17:13:56.859Z,2.40
2023-05-19T17:16:24.187Z,2.30
2023-05-19T17:18:51.479Z,2.42
2023-05-19T17:21:18.470Z,2.20
2023-05-19T17:23:45.257Z,2.05
2023-05-19T17:26:12.273Z,2.40
2023-05-19T17:28:39.151Z,2.25
2023-05-19T17:31:13.040Z,2.35
2023-05-19T17:33:40.179Z,2.78
2023-05-19T17:36:08.452Z,2.25
2023-05-19T17:38:35.742Z,2.80
2023-05-19T17:41:04.814Z,2.45
2023-05-19T17:43:31.885Z,2.45
2023-05-19T17:46:00.910Z,2.00
2023-05-19T17:48:28.355Z,2.30
2023-05-19T17:50:55.159Z,2.50
2023-05-19T17:53:22.211Z,2.70
2023-05-19T17:56:02.790Z,2.65
2023-05-19T17:58:31.053Z,2.40
2023-05-19T18:00:58.058Z,2.35
2023-05-19T18:03:25.302Z,2.63
2023-05-19T18:05:52.509Z,2.60
2023-05-19T18:08:19.611Z,3.10
2023-05-19T18:10:48.830Z,2.83
2023-05-19T18:13:15.690Z,2.78
2023-05-19T18:15:43.150Z,2.85
2023-05-19T18:18:11.249Z,2.95
2023-05-19T18:20:39.772Z,3.05
2023-05-19T18:23:06.741Z,3.05
2023-05-19T18:25:33.715Z,3.70
2023-05-19T18:28:01.465Z,2.88
2023-05-19T18:30:28.300Z,3.05
2023-05-19T18:32:55.176Z,2.70
2023-05-19T18:35:22.422Z,3.00
2023-05-19T18:37:49.413Z,2.80
2023-05-19T18:40:16.635Z,2.53
2023-05-19T18:42:43.460Z,2.83
2023-05-19T18:45:13.236Z,2.70
2023-05-19T18:47:40.023Z,2.75
2023-05-19T18:50:07.377Z,3.05
2023-05-19T18:52:34.226Z,3.50
2023-05-19T18:55:01.472Z,2.83
2023-05-19T18:57:28.461Z,3.08
2023-05-19T18:59:55.311Z,3.00
2023-05-19T19:02:22.170Z,3.15
2023-05-19T19:04:49.063Z,2.95
2023-05-19T19:07:16.407Z,3.03
2023-05-19T19:09:44.026Z,2.88
2023-05-19T19:12:11.257Z,3.33
2023-05-19T19:14:38.858Z,2.95
2023-05-19T19:17:06.056Z,3.13
2023-05-19T19:19:33.155Z,2.80
2023-05-19T19:22:00.112Z,3.05
2023-05-19T19:24:28.687Z,2.97
2023-05-19T19:26:55.632Z,3.28
2023-05-19T19:29:22.589Z,2.83
2023-05-19T19:31:49.465Z,2.40
2023-05-19T19:34:17.997Z,2.97
2023-05-19T19:36:45.203Z,2.72
2023-05-19T19:39:12.296Z,3.00
2023-05-19T19:41:41.161Z,3.13
2023-05-19T19:44:08.159Z,3.05
2023-05-19T19:46:35.308Z,2.78
2023-05-19T19:49:02.418Z,2.75
2023-05-19T19:51:29.433Z,2.83
2023-05-19T19:53:56.226Z,3.05
2023-05-19T19:56:24.872Z,2.97
2023-05-19T19:58:52.155Z,2.90
2023-05-19T20:01:20.888Z,3.30
2023-05-19T20:03:48.219Z,3.00
2023-05-19T20:06:15.347Z,3.20
2023-05-19T20:08:42.183Z,2.60
2023-05-19T20:11:09.471Z,2.83
2023-05-19T20:13:36.786Z,2.70
2023-05-19T20:16:03.764Z,3.15
2023-05-19T20:18:30.607Z,3.47
2023-05-19T20:20:57.553Z,3.25
2023-05-19T20:23:24.397Z,3.35
2023-05-19T20:26:10.038Z,3.00
2023-05-19T20:28:37.515Z,3.00
2023-05-19T20:31:05.185Z,3.55
2023-05-19T20:33:32.293Z,3.40
2023-05-19T20:35:59.138Z,3.35
2023-05-19T20:38:26.041Z,3.13
2023-05-19T20:40:54.364Z,3.10
2023-05-19T20:43:21.528Z,3.30
2023-05-19T20:45:48.610Z,3.00
2023-05-19T20:48:18.625Z,3.28
2023-05-19T20:50:46.050Z,3.28
2023-05-19T20:53:12.861Z,3.20
2023-05-19T20:55:40.067Z,3.28
2023-05-19T20:58:07.148Z,3.50
2023-05-19T21:00:34.216Z,3.47
2023-05-19T21:03:01.736Z,3.15
2023-05-19T21:05:29.302Z,3.22
2023-05-19T21:07:56.312Z,3.85
2023-05-19T21:10:23.288Z,3.33
2023-05-19T21:12:50.265Z,3.10
2023-05-19T21:15:17.059Z,3.58
2023-05-19T21:17:43.887Z,3.42
2023-05-19T21:20:11.272Z,3.20
2023-05-19T21:22:38.126Z,3.25
2023-05-19T21:25:05.336Z,3.35
2023-05-19T21:27:33.149Z,3.17
2023-05-19T21:30:00.344Z,3.38
2023-05-19T21:32:28.040Z,3.47
2023-05-19T21:34:54.863Z,3.88
2023-05-19T21:37:22.008Z,3.20
2023-05-19T21:39:49.227Z,3.75
2023-05-19T21:42:16.096Z,3.45
2023-05-19T21:44:42.915Z,3.38
2023-05-19T21:47:09.739Z,3.80
2023-05-19T21:49:38.456Z,3.83
2023-05-19T21:52:05.825Z,3.78
2023-05-19T21:54:32.635Z,3.63
2023-05-19T21:56:59.450Z,3.80
2023-05-19T21:59:26.666Z,3.83
2023-05-19T22:01:53.663Z,3.90
2023-05-19T22:04:21.824Z,3.60
2023-05-19T22:06:48.655Z,3.97
2023-05-19T22:09:15.512Z,4.45
2023-05-19T22:11:42.431Z,3.90
2023-05-19T22:14:09.302Z,3.50
2023-05-19T22:16:36.123Z,3.50
2023-05-19T22:19:03.014Z,3.83
2023-05-19T22:21:29.886Z,3.78
2023-05-19T22:23:56.768Z,4.10
2023-05-19T22:26:23.608Z,3.97
2023-05-19T22:28:50.800Z,4.10
2023-05-19T22:31:17.940Z,3.95
2023-05-19T22:33:44.988Z,3.58
2023-05-19T22:36:11.857Z,3.30
2023-05-19T22:38:38.676Z,4.65
2023-05-19T22:41:05.765Z,3.70
2023-05-19T22:43:32.699Z,3.60
2023-05-19T22:45:59.527Z,3.95
2023-05-19T22:48:26.379Z,3.40
2023-05-19T22:50:53.217Z,4.05
2023-05-19T22:53:20.016Z,4.05
2023-05-19T22:55:47.019Z,3.60
2023-05-19T22:58:13.862Z,3.83
2023-05-19T23:00:40.718Z,4.20
2023-05-19T23:03:07.596Z,3.75
2023-05-19T23:05:34.744Z,4.32
2023-05-19T23:08:01.861Z,4.00
2023-05-19T23:10:28.721Z,4.25
2023-05-19T23:12:55.563Z,4.45
2023-05-19T23:15:22.335Z,4.28
2023-05-19T23:17:49.164Z,4.05
2023-05-19T23:20:16.069Z,4.70
2023-05-19T23:22:42.936Z,4.13
2023-05-19T23:25:09.931Z,4.55
2023-05-19T23:27:36.887Z,4.40
2023-05-19T23:30:04.211Z,4.20
2023-05-19T23:32:31.136Z,4.63
2023-05-19T23:34:58.018Z,4.57
2023-05-19T23:37:24.837Z,4.10
2023-05-19T23:39:51.747Z,4.72
2023-05-19T23:42:18.590Z,4.80
2023-05-19T23:44:45.432Z,4.50
2023-05-19T23:47:12.222Z,4.93
2023-05-19T23:49:38.963Z,4.32
2023-05-19T23:52:06.205Z,4.78
2023-05-19T23:54:32.948Z,4.75
2023-05-19T23:56:59.814Z,5.03
2023-05-19T23:59:26.694Z,4.72
